createdAt,value
2018-09-02T00:00:07.833Z,0.00
2018-09-02T00:01:07.812Z,0.00
2018-09-02T00:02:07.809Z,0.00
2018-09-02T00:03:07.791Z,0.00
2018-09-02T00:04:07.808Z,0.00
2018-09-02T00:05:07.773Z,0.00
2018-09-02T00:06:07.764Z,0.00
2018-09-02T00:07:07.746Z,0.00
2018-09-02T00:08:07.733Z,0.00
2018-09-02T00:09:07.754Z,0.00
2018-09-02T00:10:07.710Z,0.00
2018-09-02T00:11:07.705Z,0.00
2018-09-02T00:12:07.690Z,0.00
2018-09-02T00:13:07.676Z,0.00
2018-09-02T00:14:07.697Z,0.00
2018-09-02T00:15:07.656Z,0.00
2018-09-02T00:16:07.647Z,0.00
2018-09-02T00:17:07.641Z,0.00
2018-09-02T00:18:07.619Z,0.00
2018-09-02T00:19:07.634Z,0.00
2018-09-02T00:20:07.601Z,0.00
2018-09-02T00:21:07.588Z,0.00
2018-09-02T00:22:07.573Z,0.00
2018-09-02T00:23:07.562Z,0.00
2018-09-02T00:24:07.576Z,0.00
2018-09-02T00:25:07.537Z,0.00
2018-09-02T00:26:07.537Z,0.00
2018-09-02T00:27:07.519Z,0.00
2018-09-02T00:28:07.510Z,0.00
2018-09-02T00:29:07.523Z,0.00
2018-09-02T00:30:07.482Z,0.00
2018-09-02T00:31:07.474Z,0.00
2018-09-02T00:32:07.462Z,0.00
2018-09-02T00:33:07.482Z,0.00
2018-09-02T00:34:07.467Z,0.00
2018-09-02T00:35:07.453Z,0.00
2018-09-02T00:36:07.421Z,0.00
2018-09-02T00:37:07.408Z,0.00
2018-09-02T00:38:07.395Z,0.00
2018-09-02T00:39:07.410Z,0.00
2018-09-02T00:40:07.371Z,0.00
2018-09-02T00:41:07.359Z,0.00
2018-09-02T00:42:07.345Z,0.00
2018-09-02T00:43:07.332Z,0.00
2018-09-02T00:44:07.353Z,0.00
2018-09-02T00:45:07.310Z,0.00
2018-09-02T00:46:07.308Z,0.00
2018-09-02T00:47:07.299Z,0.00
2018-09-02T00:48:07.276Z,0.00
2018-09-02T00:49:07.294Z,0.00
2018-09-02T00:50:07.253Z,0.00
2018-09-02T00:51:07.247Z,0.00
2018-09-02T00:52:07.231Z,0.00
2018-09-02T00:53:07.223Z,0.00
2018-09-02T00:54:07.236Z,0.00
2018-09-02T00:55:07.202Z,0.00
2018-09-02T00:56:07.187Z,0.00
2018-09-02T00:57:07.184Z,0.00
2018-09-02T00:58:07.171Z,0.00
2018-09-02T00:59:07.174Z,0.00
2018-09-02T01:00:07.150Z,0.00
2018-09-02T01:01:07.136Z,0.00
2018-09-02T01:02:07.129Z,0.00
2018-09-02T01:03:07.109Z,0.00
2018-09-02T01:04:07.121Z,0.00
2018-09-02T01:05:07.091Z,0.00
2018-09-02T01:06:07.072Z,0.00
2018-09-02T01:07:07.068Z,0.00
2018-09-02T01:08:07.048Z,0.00
2018-09-02T01:09:07.062Z,0.00
2018-09-02T01:10:07.028Z,0.00
2018-09-02T01:11:07.018Z,0.00
2018-09-02T01:12:07.008Z,0.00
2018-09-02T01:13:07.000Z,0.00
2018-09-02T01:14:07.003Z,0.00
2018-09-02T01:15:06.973Z,0.00
2018-09-02T01:16:07.127Z,0.00
2018-09-02T01:17:06.946Z,0.00
2018-09-02T01:18:06.942Z,0.00
2018-09-02T01:19:06.925Z,0.00
2018-09-02T01:20:06.918Z,0.00
2018-09-02T01:21:06.908Z,0.00
2018-09-02T01:22:06.909Z,0.00
2018-09-02T01:23:06.966Z,0.00
2018-09-02T01:24:06.866Z,0.00
2018-09-02T01:25:06.857Z,0.00
2018-09-02T01:26:06.843Z,0.00
2018-09-02T01:27:06.853Z,0.00
2018-09-02T01:28:06.828Z,0.00
2018-09-02T01:29:06.814Z,0.00
2018-09-02T01:30:06.800Z,0.00
2018-09-02T01:31:06.787Z,0.00
2018-09-02T01:32:06.807Z,0.00
2018-09-02T01:33:06.770Z,0.00
2018-09-02T01:34:06.755Z,0.00
2018-09-02T01:35:06.738Z,0.00
2018-09-02T01:36:06.736Z,0.00
2018-09-02T01:37:06.716Z,0.00
2018-09-02T01:38:06.740Z,0.00
2018-09-02T01:39:06.695Z,0.00
2018-09-02T01:40:06.691Z,0.00
2018-09-02T01:41:06.671Z,0.00
2018-09-02T01:42:06.669Z,0.00
2018-09-02T01:43:06.674Z,0.00
2018-09-02T01:44:06.642Z,0.00
2018-09-02T01:45:06.629Z,0.00
2018-09-02T01:46:06.620Z,0.00
2018-09-02T01:47:06.609Z,0.00
2018-09-02T01:48:06.625Z,0.00
2018-09-02T01:49:06.586Z,0.00
2018-09-02T01:50:06.573Z,0.00
2018-09-02T01:51:06.567Z,0.00
2018-09-02T01:52:06.546Z,0.00
2018-09-02T01:53:06.547Z,0.00
2018-09-02T01:54:06.557Z,0.00
2018-09-02T01:55:06.521Z,0.00
2018-09-02T01:56:06.502Z,0.00
2018-09-02T01:57:06.500Z,0.00
2018-09-02T01:58:06.478Z,0.00
2018-09-02T01:59:06.473Z,0.00
2018-09-02T02:00:06.479Z,0.00
2018-09-02T02:01:06.449Z,0.00
2018-09-02T02:02:06.437Z,0.00
2018-09-02T02:03:06.424Z,0.00
2018-09-02T02:04:06.416Z,0.00
2018-09-02T02:05:06.429Z,0.00
2018-09-02T02:06:06.385Z,0.00
2018-09-02T02:07:06.380Z,0.00
2018-09-02T02:08:06.366Z,0.00
2018-09-02T02:09:06.353Z,0.00
2018-09-02T02:10:06.394Z,0.00
2018-09-02T02:11:06.338Z,0.00
2018-09-02T02:12:06.329Z,0.00
2018-09-02T02:13:06.314Z,0.00
2018-09-02T02:14:06.300Z,0.00
2018-09-02T02:15:06.288Z,0.00
2018-09-02T02:16:06.311Z,0.00
2018-09-02T02:17:06.271Z,0.00
2018-09-02T02:18:06.251Z,0.00
2018-09-02T02:19:06.245Z,0.00
2018-09-02T02:20:06.231Z,0.00
2018-09-02T02:21:06.216Z,0.00
2018-09-02T02:22:06.234Z,0.00
2018-09-02T02:23:06.197Z,0.00
2018-09-02T02:24:06.189Z,0.00
2018-09-02T02:25:06.179Z,0.00
2018-09-02T02:26:06.157Z,0.00
2018-09-02T02:27:06.184Z,0.00
2018-09-02T02:28:06.142Z,0.00
2018-09-02T02:29:06.134Z,0.00
2018-09-02T02:30:06.114Z,0.00
2018-09-02T02:31:06.102Z,0.00
2018-09-02T02:32:06.098Z,0.00
2018-09-02T02:33:06.112Z,0.00
2018-09-02T02:34:06.069Z,0.00
2018-09-02T02:35:06.065Z,0.00
2018-09-02T02:36:06.043Z,0.00
2018-09-02T02:37:06.047Z,0.00
2018-09-02T02:38:06.021Z,0.00
2018-09-02T02:39:06.045Z,0.00
2018-09-02T02:40:06.002Z,0.00
2018-09-02T02:41:05.994Z,0.00
2018-09-02T02:42:05.979Z,0.00
2018-09-02T02:43:05.975Z,0.00
2018-09-02T02:44:05.962Z,0.00
2018-09-02T02:45:05.963Z,0.00
2018-09-02T02:46:05.939Z,0.00
2018-09-02T02:47:05.921Z,0.00
2018-09-02T02:48:05.914Z,0.00
2018-09-02T02:49:05.898Z,0.00
2018-09-02T02:50:05.920Z,0.00
2018-09-02T02:51:05.874Z,0.00
2018-09-02T02:52:05.870Z,0.00
2018-09-02T02:53:05.855Z,0.00
2018-09-02T02:54:05.841Z,0.00
2018-09-02T02:55:05.831Z,0.00
2018-09-02T02:56:05.855Z,0.00
2018-09-02T02:57:05.813Z,0.00
2018-09-02T02:58:05.793Z,0.00
2018-09-02T02:59:05.792Z,0.00
2018-09-02T03:00:05.770Z,0.00
2018-09-02T03:01:05.767Z,0.00
2018-09-02T03:02:05.768Z,0.00
2018-09-02T03:03:05.745Z,0.00
2018-09-02T03:04:05.728Z,0.00
2018-09-02T03:05:05.718Z,0.00
2018-09-02T03:06:05.704Z,0.00
2018-09-02T03:07:05.724Z,0.00
2018-09-02T03:08:05.682Z,0.00
2018-09-02T03:09:05.676Z,0.00
2018-09-02T03:10:05.654Z,0.00
2018-09-02T03:11:05.649Z,0.00
2018-09-02T03:12:05.638Z,0.00
2018-09-02T03:13:05.648Z,0.00
2018-09-02T03:14:05.618Z,0.00
2018-09-02T03:15:05.599Z,0.00
2018-09-02T03:16:05.585Z,0.00
2018-09-02T03:17:05.582Z,0.00
2018-09-02T03:18:05.573Z,0.00
2018-09-02T03:19:05.576Z,0.00
2018-09-02T03:20:05.545Z,0.00
2018-09-02T03:21:05.531Z,0.00
2018-09-02T03:22:05.523Z,0.00
2018-09-02T03:23:05.511Z,0.00
2018-09-02T03:24:05.523Z,0.00
2018-09-02T03:25:05.489Z,0.00
2018-09-02T03:26:05.473Z,0.00
2018-09-02T03:27:05.463Z,0.00
2018-09-02T03:28:05.455Z,0.00
2018-09-02T03:29:05.438Z,0.00
2018-09-02T03:30:05.460Z,0.00
2018-09-02T03:31:05.423Z,0.00
2018-09-02T03:32:05.401Z,0.00
2018-09-02T03:33:05.398Z,0.00
2018-09-02T03:34:05.385Z,0.00
2018-09-02T03:35:05.366Z,0.00
2018-09-02T03:36:05.387Z,0.00
2018-09-02T03:37:05.344Z,0.00
2018-09-02T03:38:05.341Z,0.00
2018-09-02T03:39:05.323Z,0.00
2018-09-02T03:40:05.315Z,0.00
2018-09-02T03:41:05.301Z,0.00
2018-09-02T03:42:05.314Z,0.00
2018-09-02T03:43:05.275Z,0.00
2018-09-02T03:44:05.272Z,0.00
2018-09-02T03:45:05.251Z,0.00
2018-09-02T03:46:05.249Z,0.00
2018-09-02T03:47:05.257Z,0.00
2018-09-02T03:48:05.220Z,0.00
2018-09-02T03:49:05.213Z,0.00
2018-09-02T03:50:05.197Z,0.00
2018-09-02T03:51:05.193Z,0.00
2018-09-02T03:52:05.172Z,0.00
2018-09-02T03:53:05.191Z,0.00
2018-09-02T03:54:05.149Z,0.00
2018-09-02T03:55:05.138Z,0.00
2018-09-02T03:56:05.136Z,0.00
2018-09-02T03:57:05.115Z,0.00
2018-09-02T03:58:05.114Z,0.00
2018-09-02T03:59:05.121Z,0.00
2018-09-02T04:00:05.087Z,0.00
2018-09-02T04:01:05.072Z,0.00
2018-09-02T04:02:05.064Z,0.00
2018-09-02T04:03:05.049Z,0.00
2018-09-02T04:04:05.064Z,0.00
2018-09-02T04:05:05.034Z,0.00
2018-09-02T04:06:05.014Z,0.00
2018-09-02T04:07:05.007Z,0.00
2018-09-02T04:08:04.991Z,0.00
2018-09-02T04:09:04.976Z,0.00
2018-09-02T04:10:05.000Z,0.00
2018-09-02T04:11:04.963Z,0.00
2018-09-02T04:12:04.941Z,0.00
2018-09-02T04:13:04.933Z,0.00
2018-09-02T04:14:04.928Z,0.00
2018-09-02T04:15:04.908Z,0.00
2018-09-02T04:16:04.931Z,0.00
2018-09-02T04:17:04.891Z,0.00
2018-09-02T04:18:04.882Z,0.00
2018-09-02T04:19:04.866Z,0.00
2018-09-02T04:20:04.855Z,0.00
2018-09-02T04:21:04.861Z,0.00
2018-09-02T04:22:04.841Z,0.00
2018-09-02T04:23:04.820Z,0.00
2018-09-02T04:24:04.812Z,0.00
2018-09-02T04:25:04.798Z,0.00
2018-09-02T04:26:04.812Z,0.00
2018-09-02T04:27:04.776Z,0.00
2018-09-02T04:28:04.774Z,0.00
2018-09-02T04:29:04.756Z,0.00
2018-09-02T04:30:04.742Z,0.00
2018-09-02T04:31:04.736Z,0.00
2018-09-02T04:32:04.744Z,0.00
2018-09-02T04:33:04.707Z,0.00
2018-09-02T04:34:04.698Z,0.00
2018-09-02T04:35:04.692Z,5.62
2018-09-02T04:36:04.676Z,5.62
2018-09-02T04:37:04.672Z,5.62
2018-09-02T04:38:04.682Z,5.62
2018-09-02T04:39:04.643Z,5.62
2018-09-02T04:40:04.628Z,5.62
2018-09-02T04:41:04.614Z,11.25
2018-09-02T04:42:04.610Z,11.25
2018-09-02T04:43:04.599Z,11.25
2018-09-02T04:44:04.602Z,11.25
2018-09-02T04:45:04.631Z,11.25
2018-09-02T04:46:04.556Z,16.88
2018-09-02T04:47:04.550Z,16.88
2018-09-02T04:48:04.536Z,16.88
2018-09-02T04:49:04.556Z,22.50
2018-09-02T04:50:04.512Z,22.50
2018-09-02T04:51:04.498Z,22.50
2018-09-02T04:52:04.489Z,28.12
2018-09-02T04:53:04.482Z,28.12
2018-09-02T04:54:04.467Z,28.12
2018-09-02T04:55:04.490Z,33.75
2018-09-02T04:56:04.444Z,33.75
2018-09-02T04:57:04.434Z,33.75
2018-09-02T04:58:04.417Z,39.38
2018-09-02T04:59:04.406Z,39.38
2018-09-02T05:00:04.408Z,45.00
2018-09-02T05:01:04.431Z,45.00
2018-09-02T05:02:04.381Z,50.62
2018-09-02T05:03:04.363Z,50.62
2018-09-02T05:04:04.354Z,56.25
2018-09-02T05:05:04.340Z,56.25
2018-09-02T05:06:04.363Z,61.88
2018-09-02T05:07:04.316Z,61.88
2018-09-02T05:08:04.304Z,67.50
2018-09-02T05:09:04.300Z,67.50
2018-09-02T05:10:04.277Z,73.12
2018-09-02T05:11:04.275Z,73.12
2018-09-02T05:12:04.308Z,78.75
2018-09-02T05:13:04.245Z,78.75
2018-09-02T05:14:04.271Z,84.38
2018-09-02T05:15:04.223Z,84.38
2018-09-02T05:16:04.218Z,90.00
2018-09-02T05:17:04.207Z,90.00
2018-09-02T05:18:04.211Z,95.62
2018-09-02T05:19:04.178Z,95.62
2018-09-02T05:20:04.169Z,101.25
2018-09-02T05:21:04.159Z,106.88
2018-09-02T05:22:04.140Z,106.88
2018-09-02T05:23:04.168Z,106.88
2018-09-02T05:24:04.119Z,101.25
2018-09-02T05:25:04.115Z,106.88
2018-09-02T05:26:04.093Z,118.12
2018-09-02T05:27:04.088Z,123.75
2018-09-02T05:28:04.072Z,123.75
2018-09-02T05:29:04.087Z,129.38
2018-09-02T05:30:04.050Z,129.38
2018-09-02T05:31:04.042Z,135.00
2018-09-02T05:32:04.064Z,135.00
2018-09-02T05:33:04.020Z,140.62
2018-09-02T05:34:04.021Z,140.62
2018-09-02T05:35:04.236Z,146.25
2018-09-02T05:36:03.985Z,151.88
2018-09-02T05:37:04.050Z,151.88
2018-09-02T05:38:03.955Z,157.50
2018-09-02T05:39:03.971Z,157.50
2018-09-02T05:40:03.966Z,163.12
2018-09-02T05:41:03.918Z,163.12
2018-09-02T05:42:03.915Z,168.75
2018-09-02T05:43:03.897Z,168.75
2018-09-02T05:44:03.974Z,174.38
2018-09-02T05:45:03.904Z,174.38
2018-09-02T05:46:03.865Z,180.00
2018-09-02T05:47:03.855Z,180.00
2018-09-02T05:48:03.840Z,185.62
2018-09-02T05:49:03.831Z,185.62
2018-09-02T05:50:03.821Z,191.25
2018-09-02T05:50:58.188Z,191.25
2018-09-02T05:52:23.782Z,196.88
2018-09-02T05:53:29.275Z,202.50
2018-09-02T05:54:54.908Z,202.50
2018-09-02T05:56:00.424Z,208.12
2018-09-02T05:57:26.033Z,213.75
2018-09-02T05:58:31.526Z,213.75
2018-09-02T05:59:57.133Z,219.38
2018-09-02T06:01:02.656Z,219.38
2018-09-02T06:01:52.801Z,230.62
2018-09-02T06:02:52.912Z,264.38
2018-09-02T06:03:52.772Z,298.12
2018-09-02T06:04:52.764Z,298.12
2018-09-02T06:05:53.037Z,303.75
2018-09-02T06:06:52.772Z,281.25
2018-09-02T06:07:52.730Z,286.88
2018-09-02T06:08:52.718Z,315.00
2018-09-02T06:09:52.716Z,309.38
2018-09-02T06:10:52.695Z,315.00
2018-09-02T06:11:52.686Z,337.50
2018-09-02T06:12:52.706Z,348.75
2018-09-02T06:13:52.655Z,360.00
2018-09-02T06:14:52.645Z,371.25
2018-09-02T06:15:52.639Z,376.88
2018-09-02T06:16:52.622Z,388.12
2018-09-02T06:17:52.612Z,399.38
2018-09-02T06:18:52.620Z,416.25
2018-09-02T06:19:52.596Z,421.88
2018-09-02T06:20:52.578Z,444.38
2018-09-02T06:21:52.576Z,506.25
2018-09-02T06:22:52.556Z,624.38
2018-09-02T06:23:52.574Z,888.75
2018-09-02T06:24:52.532Z,1119.38
2018-09-02T06:25:52.524Z,1046.25
2018-09-02T06:26:55.795Z,1001.25
2018-09-02T06:27:52.761Z,1046.25
2018-09-02T06:28:52.489Z,956.25
2018-09-02T06:29:52.511Z,950.62
2018-09-02T06:30:53.575Z,990.00
2018-09-02T06:31:53.670Z,956.25
2018-09-02T06:32:53.738Z,911.25
2018-09-02T06:33:52.561Z,916.88
2018-09-02T06:34:52.558Z,1006.88
2018-09-02T06:35:52.850Z,967.50
2018-09-02T06:36:52.743Z,928.12
2018-09-02T06:37:52.562Z,1074.38
2018-09-02T06:38:52.406Z,1029.38
2018-09-02T06:39:52.417Z,1006.88
2018-09-02T06:40:52.652Z,1125.00
2018-09-02T06:41:52.509Z,1108.12
2018-09-02T06:42:52.616Z,1102.50
2018-09-02T06:43:52.336Z,1220.62
2018-09-02T06:44:52.328Z,1237.50
2018-09-02T06:45:52.371Z,1316.25
2018-09-02T06:46:52.639Z,1395.00
2018-09-02T06:47:52.268Z,1518.75
2018-09-02T06:48:52.267Z,1665.00
2018-09-02T06:49:52.275Z,1704.38
2018-09-02T06:50:52.245Z,1597.50
2018-09-02T06:51:52.612Z,1490.62
2018-09-02T06:52:52.243Z,1333.12
2018-09-02T06:53:52.211Z,1400.62
2018-09-02T06:54:52.192Z,1766.25
2018-09-02T06:55:52.173Z,1822.50
2018-09-02T06:56:52.207Z,1755.00
2018-09-02T06:57:52.177Z,1535.62
2018-09-02T06:58:52.137Z,1681.88
2018-09-02T06:59:52.135Z,1839.38
2018-09-02T07:00:52.120Z,2025.00
2018-09-02T07:01:52.106Z,1929.38
2018-09-02T07:02:52.133Z,1845.00
2018-09-02T07:03:52.132Z,1721.25
2018-09-02T07:04:52.115Z,1760.62
2018-09-02T07:05:52.058Z,1901.25
2018-09-02T07:06:52.052Z,1816.88
2018-09-02T07:07:52.122Z,1597.50
2018-09-02T07:08:52.061Z,1631.25
2018-09-02T07:09:52.044Z,1929.38
2018-09-02T07:10:52.000Z,1968.75
2018-09-02T07:11:52.000Z,1884.38
2018-09-02T07:12:52.097Z,1597.50
2018-09-02T07:13:51.973Z,1681.88
2018-09-02T07:14:51.964Z,1698.75
2018-09-02T07:15:51.967Z,1755.00
2018-09-02T07:16:51.942Z,1738.12
2018-09-02T07:17:51.920Z,1749.38
2018-09-02T07:18:51.918Z,1788.75
2018-09-02T07:19:51.904Z,1693.12
2018-09-02T07:20:51.923Z,1575.00
2018-09-02T07:21:51.878Z,1546.88
2018-09-02T07:22:51.869Z,1518.75
2018-09-02T07:23:51.858Z,1552.50
2018-09-02T07:24:51.848Z,1766.25
2018-09-02T07:25:51.913Z,1665.00
2018-09-02T07:26:51.870Z,1558.12
2018-09-02T07:27:51.806Z,1687.50
2018-09-02T07:28:51.802Z,1530.00
2018-09-02T07:29:51.782Z,1316.25
2018-09-02T07:30:51.772Z,1552.50
2018-09-02T07:31:51.768Z,1828.12
2018-09-02T07:32:51.776Z,1693.12
2018-09-02T07:33:51.747Z,1473.75
2018-09-02T07:34:51.734Z,1366.88
2018-09-02T07:35:51.712Z,1406.25
2018-09-02T07:36:51.706Z,1406.25
2018-09-02T07:37:51.729Z,1451.25
2018-09-02T07:38:51.684Z,1468.12
2018-09-02T07:39:51.675Z,1462.50
2018-09-02T07:40:51.671Z,1580.62
2018-09-02T07:41:51.655Z,1535.62
2018-09-02T07:42:51.636Z,1451.25
2018-09-02T07:43:51.707Z,1518.75
2018-09-02T07:44:51.614Z,849.38
2018-09-02T07:45:51.609Z,1451.25
2018-09-02T07:46:51.601Z,1552.50
2018-09-02T07:47:51.578Z,1490.62
2018-09-02T07:48:51.573Z,1451.25
2018-09-02T07:49:51.580Z,1411.88
2018-09-02T07:50:51.541Z,1428.75
2018-09-02T07:51:51.538Z,1518.75
2018-09-02T07:52:51.517Z,1406.25
2018-09-02T07:53:51.514Z,1344.38
2018-09-02T07:54:51.557Z,1485.00
2018-09-02T07:55:51.486Z,1636.88
2018-09-02T07:56:51.479Z,1563.75
2018-09-02T07:57:51.464Z,1597.50
2018-09-02T07:58:51.459Z,1659.38
2018-09-02T07:59:51.443Z,1670.62
2018-09-02T08:00:51.459Z,1580.62
2018-09-02T08:01:51.422Z,1524.38
2018-09-02T08:02:51.483Z,1687.50
2018-09-02T08:03:51.404Z,1935.00
2018-09-02T08:04:51.383Z,1906.88
2018-09-02T08:05:51.411Z,1951.88
2018-09-02T08:06:51.366Z,1951.88
2018-09-02T08:07:51.360Z,1929.38
2018-09-02T08:08:51.342Z,1968.75
2018-09-02T08:09:51.334Z,1895.62
2018-09-02T08:10:51.352Z,1918.12
2018-09-02T08:11:51.341Z,1968.75
2018-09-02T08:12:51.446Z,1845.00
2018-09-02T08:13:51.281Z,1805.62
2018-09-02T08:14:51.300Z,1918.12
2018-09-02T08:15:51.272Z,2036.25
2018-09-02T08:16:51.254Z,2036.25
2018-09-02T08:17:51.261Z,2025.00
2018-09-02T08:18:51.226Z,1946.25
2018-09-02T08:19:51.247Z,1816.88
2018-09-02T08:20:51.207Z,1850.62
2018-09-02T08:21:51.197Z,1991.25
2018-09-02T08:22:51.206Z,2070.00
2018-09-02T08:23:51.177Z,2036.25
2018-09-02T08:24:51.157Z,2008.12
2018-09-02T08:25:51.356Z,2070.00
2018-09-02T08:26:51.886Z,2176.88
2018-09-02T08:27:51.713Z,2131.88
2018-09-02T08:28:51.535Z,2103.75
2018-09-02T08:29:51.786Z,2362.50
2018-09-02T08:30:51.376Z,2615.62
2018-09-02T08:31:51.079Z,2638.12
2018-09-02T08:32:51.126Z,2593.12
2018-09-02T08:33:51.058Z,2671.88
2018-09-02T08:34:51.056Z,2925.00
2018-09-02T08:35:51.041Z,3228.75
2018-09-02T08:36:51.035Z,3003.75
2018-09-02T08:37:51.048Z,2520.00
2018-09-02T08:38:51.073Z,2115.00
2018-09-02T08:39:50.996Z,1991.25
2018-09-02T08:40:50.987Z,1890.00
2018-09-02T08:41:50.973Z,1788.75
2018-09-02T08:42:50.964Z,1738.12
2018-09-02T08:43:50.953Z,1710.00
2018-09-02T08:44:50.960Z,1698.75
2018-09-02T08:45:50.934Z,1698.75
2018-09-02T08:46:50.925Z,1698.75
2018-09-02T08:47:50.905Z,1698.75
2018-09-02T08:48:50.895Z,1710.00
2018-09-02T08:49:50.918Z,1710.00
2018-09-02T08:50:50.884Z,1721.25
2018-09-02T08:51:50.872Z,1732.50
2018-09-02T08:52:50.849Z,1749.38
2018-09-02T08:53:50.844Z,1771.88
2018-09-02T08:54:50.838Z,1777.50
2018-09-02T08:55:50.872Z,1777.50
2018-09-02T08:56:50.810Z,1800.00
2018-09-02T08:57:50.923Z,1811.25
2018-09-02T08:58:50.982Z,1833.75
2018-09-02T08:59:50.786Z,1861.88
2018-09-02T09:00:50.765Z,1861.88
2018-09-02T09:01:50.849Z,1867.50
2018-09-02T09:02:50.747Z,1861.88
2018-09-02T09:03:50.744Z,1873.12
2018-09-02T09:04:50.722Z,1845.00
2018-09-02T09:05:50.721Z,1878.75
2018-09-02T09:06:50.734Z,1890.00
2018-09-02T09:07:50.943Z,1878.75
2018-09-02T09:08:50.820Z,1878.75
2018-09-02T09:09:50.682Z,1895.62
2018-09-02T09:10:50.654Z,1895.62
2018-09-02T09:11:50.653Z,1901.25
2018-09-02T09:12:50.668Z,1906.88
2018-09-02T09:13:50.726Z,1918.12
2018-09-02T09:14:50.613Z,1912.50
2018-09-02T09:15:50.608Z,1929.38
2018-09-02T09:16:50.688Z,1929.38
2018-09-02T09:17:50.589Z,1923.75
2018-09-02T09:18:50.602Z,1912.50
2018-09-02T09:19:50.565Z,1906.88
2018-09-02T09:20:50.612Z,1895.62
2018-09-02T09:21:50.980Z,1895.62
2018-09-02T09:22:50.908Z,1890.00
2018-09-02T09:23:50.546Z,1901.25
2018-09-02T09:24:50.605Z,1861.88
2018-09-02T09:25:50.497Z,1856.25
2018-09-02T09:26:51.251Z,1822.50
2018-09-02T09:27:51.683Z,1805.62
2018-09-02T09:28:50.465Z,1788.75
2018-09-02T09:29:50.473Z,1749.38
2018-09-02T09:30:50.445Z,1726.88
2018-09-02T09:31:50.436Z,1704.38
2018-09-02T09:32:50.433Z,1681.88
2018-09-02T09:33:50.411Z,1648.12
2018-09-02T09:34:50.423Z,1625.62
2018-09-02T09:35:50.395Z,1603.12
2018-09-02T09:36:50.383Z,1591.88
2018-09-02T09:37:50.370Z,1563.75
2018-09-02T09:38:50.395Z,1552.50
2018-09-02T09:39:50.380Z,1518.75
2018-09-02T09:40:50.357Z,1501.88
2018-09-02T09:41:50.454Z,1479.38
2018-09-02T09:42:50.314Z,1456.88
2018-09-02T09:43:50.353Z,1456.88
2018-09-02T09:44:50.298Z,1445.62
2018-09-02T09:45:50.344Z,1434.38
2018-09-02T09:46:50.330Z,1417.50
2018-09-02T09:47:50.270Z,1428.75
2018-09-02T09:48:50.257Z,1423.12
2018-09-02T09:49:50.247Z,1423.12
2018-09-02T09:50:50.257Z,1423.12
2018-09-02T09:51:50.331Z,1417.50
2018-09-02T09:52:50.273Z,1462.50
2018-09-02T09:53:50.249Z,2536.88
2018-09-02T09:54:50.191Z,4657.50
2018-09-02T09:55:50.198Z,4505.62
2018-09-02T09:56:50.202Z,3616.88
2018-09-02T09:57:50.164Z,3206.25
2018-09-02T09:58:50.155Z,3015.00
2018-09-02T09:59:50.141Z,3071.25
2018-09-02T10:00:50.135Z,3363.75
2018-09-02T10:01:50.127Z,3330.00
2018-09-02T10:02:50.146Z,2925.00
2018-09-02T10:03:50.270Z,2981.25
2018-09-02T10:04:50.095Z,3155.62
2018-09-02T10:05:50.089Z,3268.12
2018-09-02T10:06:50.072Z,3352.50
2018-09-02T10:07:50.072Z,3200.62
2018-09-02T10:08:50.079Z,3240.00
2018-09-02T10:09:50.108Z,3453.75
2018-09-02T10:10:50.042Z,3515.62
2018-09-02T10:11:50.098Z,3420.00
2018-09-02T10:12:50.016Z,3425.62
2018-09-02T10:13:50.037Z,3330.00
2018-09-02T10:14:50.000Z,3290.62
2018-09-02T10:15:49.992Z,3330.00
2018-09-02T10:16:49.979Z,3493.12
2018-09-02T10:17:49.972Z,3532.50
2018-09-02T10:18:49.955Z,3673.12
2018-09-02T10:19:49.973Z,3538.12
2018-09-02T10:20:49.934Z,3341.25
2018-09-02T10:21:49.930Z,3273.75
2018-09-02T10:22:49.920Z,3515.62
2018-09-02T10:23:49.896Z,3504.38
2018-09-02T10:24:49.894Z,3476.25
2018-09-02T10:25:49.902Z,3577.50
2018-09-02T10:26:49.865Z,3526.88
2018-09-02T10:27:49.863Z,3600.00
2018-09-02T10:28:49.842Z,3690.00
2018-09-02T10:29:49.834Z,3684.38
2018-09-02T10:30:49.822Z,3577.50
2018-09-02T10:31:49.831Z,3712.50
2018-09-02T10:32:49.805Z,3774.38
2018-09-02T10:33:49.793Z,3735.00
2018-09-02T10:34:49.780Z,3785.62
2018-09-02T10:35:49.773Z,3858.75
2018-09-02T10:36:49.791Z,3886.88
2018-09-02T10:37:49.753Z,3825.00
2018-09-02T10:38:49.737Z,3695.62
2018-09-02T10:39:49.734Z,3673.12
2018-09-02T10:40:49.713Z,3768.75
2018-09-02T10:41:49.715Z,3785.62
2018-09-02T10:42:49.716Z,3763.12
2018-09-02T10:43:49.691Z,3791.25
2018-09-02T10:44:49.684Z,3735.00
2018-09-02T10:45:49.664Z,3802.50
2018-09-02T10:46:49.679Z,3729.38
2018-09-02T10:47:49.652Z,3791.25
2018-09-02T10:48:49.659Z,3836.25
2018-09-02T10:49:49.788Z,3881.25
2018-09-02T10:50:49.618Z,3808.12
2018-09-02T10:51:49.605Z,3780.00
2018-09-02T10:52:49.613Z,3780.00
2018-09-02T10:53:49.591Z,3841.88
2018-09-02T10:54:49.581Z,3729.38
2018-09-02T10:55:49.559Z,3583.12
2018-09-02T10:56:49.565Z,3645.00
2018-09-02T10:57:49.573Z,3706.88
2018-09-02T10:58:49.528Z,3796.88
2018-09-02T10:59:49.530Z,3830.62
2018-09-02T11:00:49.509Z,3903.75
2018-09-02T11:01:49.507Z,3965.62
2018-09-02T11:02:49.492Z,3853.12
2018-09-02T11:03:49.510Z,3886.88
2018-09-02T11:04:49.472Z,3830.62
2018-09-02T11:05:49.466Z,3712.50
2018-09-02T11:06:49.456Z,3661.88
2018-09-02T11:07:49.533Z,3577.50
2018-09-02T11:08:49.553Z,3543.75
2018-09-02T11:09:49.422Z,3414.38
2018-09-02T11:10:49.407Z,3588.75
2018-09-02T11:11:49.408Z,3521.25
2018-09-02T11:12:49.398Z,3375.00
2018-09-02T11:13:49.600Z,3532.50
2018-09-02T11:14:49.415Z,3386.25
2018-09-02T11:15:49.367Z,3234.38
2018-09-02T11:16:49.352Z,3431.25
2018-09-02T11:17:49.347Z,3583.12
2018-09-02T11:18:49.331Z,3515.62
2018-09-02T11:19:49.332Z,3436.88
2018-09-02T11:20:49.332Z,3386.25
2018-09-02T11:21:49.310Z,3369.38
2018-09-02T11:22:49.294Z,3481.88
2018-09-02T11:23:49.290Z,3504.38
2018-09-02T11:24:49.275Z,3526.88
2018-09-02T11:25:49.300Z,3476.25
2018-09-02T11:26:49.260Z,3375.00
2018-09-02T11:27:49.243Z,3600.00
2018-09-02T11:28:49.242Z,3678.75
2018-09-02T11:29:49.223Z,3645.00
2018-09-02T11:30:49.223Z,3616.88
2018-09-02T11:31:49.236Z,3560.62
2018-09-02T11:32:49.200Z,3577.50
2018-09-02T11:33:49.186Z,3532.50
2018-09-02T11:34:49.177Z,3628.12
2018-09-02T11:35:49.173Z,3650.62
2018-09-02T11:36:49.193Z,3645.00
2018-09-02T11:37:49.143Z,3611.25
2018-09-02T11:38:49.144Z,3622.50
2018-09-02T11:39:49.126Z,3594.38
2018-09-02T11:40:49.119Z,3577.50
2018-09-02T11:41:49.111Z,3611.25
2018-09-02T11:42:49.117Z,3571.88
2018-09-02T11:43:49.094Z,3577.50
2018-09-02T11:44:49.110Z,3532.50
2018-09-02T11:45:49.068Z,3555.00
2018-09-02T11:46:49.118Z,3633.75
2018-09-02T11:47:49.088Z,3616.88
2018-09-02T11:48:49.047Z,3577.50
2018-09-02T11:49:49.027Z,3577.50
2018-09-02T11:50:49.015Z,3560.62
2018-09-02T11:51:49.021Z,3543.75
2018-09-02T11:52:49.004Z,3566.25
2018-09-02T11:53:49.013Z,3532.50
2018-09-02T11:54:48.977Z,3594.38
2018-09-02T11:55:49.003Z,3493.12
2018-09-02T11:56:48.962Z,3206.25
2018-09-02T11:57:49.029Z,3150.00
2018-09-02T11:58:48.973Z,3195.00
2018-09-02T11:59:48.965Z,3161.25
2018-09-02T12:00:48.957Z,3166.88
2018-09-02T12:01:48.910Z,3206.25
2018-09-02T12:02:48.899Z,3330.00
2018-09-02T12:03:48.953Z,3318.75
2018-09-02T12:04:48.929Z,3234.38
2018-09-02T12:05:48.879Z,3065.62
2018-09-02T12:06:48.863Z,3133.12
2018-09-02T12:07:48.855Z,3318.75
2018-09-02T12:08:48.842Z,3268.12
2018-09-02T12:09:48.838Z,3200.62
2018-09-02T12:10:48.844Z,3279.38
2018-09-02T12:11:48.870Z,3397.50
2018-09-02T12:12:48.804Z,3369.38
2018-09-02T12:13:48.795Z,3335.62
2018-09-02T12:14:48.780Z,3240.00
2018-09-02T12:15:48.810Z,3206.25
2018-09-02T12:16:48.761Z,3183.75
2018-09-02T12:17:48.760Z,3076.88
2018-09-02T12:18:48.750Z,2908.12
2018-09-02T12:19:48.732Z,3099.38
2018-09-02T12:20:48.725Z,3341.25
2018-09-02T12:21:48.745Z,3307.50
2018-09-02T12:22:48.701Z,3200.62
2018-09-02T12:23:48.700Z,3144.38
2018-09-02T12:24:48.684Z,3161.25
2018-09-02T12:25:48.711Z,3296.25
2018-09-02T12:26:48.670Z,3313.12
2018-09-02T12:27:48.656Z,3273.75
2018-09-02T12:28:49.118Z,3211.88
2018-09-02T12:29:48.637Z,3150.00
2018-09-02T12:30:48.627Z,3206.25
2018-09-02T12:31:48.662Z,3296.25
2018-09-02T12:32:48.607Z,3138.75
2018-09-02T12:33:48.605Z,3161.25
2018-09-02T12:34:49.756Z,3183.75
2018-09-02T12:35:48.580Z,3195.00
2018-09-02T12:36:48.565Z,3200.62